Leeuwarden, Netherlands
Current Conditions -  °F | °C
As of 8:55 PM on Saturday 25 Oct 2014 (Local Time) from EHLW Reporting Station
Scattered Clouds Scattered Clouds  
Wind Chill: 52°   Ceiling: Unl
Heat Index: 52°   Visibility: 6mi
Dew Point: 48°   Wind: 6mph
Humidity: 88%   Direction: 210°SSW
Pressure: 30.09"   Gusts: NA
Location:  53.18°N, 5.82°E
Report Text: EHLW 251855Z AUTO 21005KT 9999 SCT043 11/09 Q1019 BLU
Loading
Personal Weather Stations






























Interactive Weather Map
Tropical Storm Tracking
New forecast layout! Learn more

10-Day Weather Forecast

Advertisements
Track Severe Weather on mobile